createdAt,value
2023-12-08T00:04:45.435Z,-0.62
2023-12-08T00:09:47.024Z,-0.57
2023-12-08T00:14:48.676Z,-0.57
2023-12-08T00:19:50.312Z,-0.53
2023-12-08T00:24:51.961Z,-0.50
2023-12-08T00:29:53.641Z,-0.49
2023-12-08T00:34:56.034Z,-0.47
2023-12-08T00:39:57.645Z,-0.46
2023-12-08T00:44:59.280Z,-0.38
2023-12-08T00:50:01.172Z,-0.31
2023-12-08T00:55:02.766Z,-0.34
2023-12-08T01:00:05.467Z,-0.37
2023-12-08T01:05:07.297Z,-0.42
2023-12-08T01:10:08.899Z,-0.46
2023-12-08T01:15:10.644Z,-0.46
2023-12-08T01:20:12.288Z,-0.40
2023-12-08T01:25:14.291Z,-0.39
2023-12-08T01:30:15.962Z,-0.31
2023-12-08T01:35:17.612Z,-0.31
2023-12-08T01:40:19.220Z,-0.24
2023-12-08T01:45:20.750Z,-0.27
2023-12-08T01:50:22.332Z,-0.34
2023-12-08T01:55:23.877Z,-0.28
2023-12-08T02:00:26.101Z,-0.23
2023-12-08T02:05:27.759Z,-0.21
2023-12-08T02:10:29.663Z,-0.25
2023-12-08T02:15:31.253Z,-0.16
2023-12-08T02:20:33.301Z,-0.12
2023-12-08T02:25:36.009Z,-0.11
2023-12-08T02:30:37.618Z,-0.09
2023-12-08T02:35:40.722Z,-0.30
2023-12-08T02:40:42.315Z,-0.47
2023-12-08T02:45:43.956Z,-0.44
2023-12-08T02:50:45.596Z,-0.44
2023-12-08T02:55:47.165Z,-0.48
2023-12-08T03:00:48.817Z,-0.49
2023-12-08T03:05:51.572Z,-0.34
2023-12-08T03:10:53.182Z,-0.27
2023-12-08T03:15:54.756Z,-0.42
2023-12-08T03:20:56.324Z,-0.30
2023-12-08T03:25:57.939Z,-0.30
2023-12-08T03:30:59.492Z,-0.35
2023-12-08T03:36:01.424Z,-0.37
2023-12-08T03:41:03.124Z,-0.41
2023-12-08T03:46:06.284Z,-0.35
2023-12-08T03:51:07.955Z,-0.33
2023-12-08T03:56:09.747Z,-0.41
2023-12-08T04:01:17.436Z,-0.61
2023-12-08T04:06:19.103Z,-0.64
2023-12-08T04:11:20.758Z,-0.59
2023-12-08T04:16:22.387Z,-0.60
2023-12-08T04:21:23.951Z,-0.64
2023-12-08T04:26:28.598Z,-0.72
2023-12-08T04:31:30.248Z,-0.56
2023-12-08T04:36:31.811Z,-0.68
2023-12-08T04:41:33.420Z,-0.57
2023-12-08T04:46:35.076Z,-0.47
2023-12-08T04:51:36.803Z,-0.41
2023-12-08T04:56:38.417Z,-0.36
2023-12-08T05:01:39.998Z,-0.30
2023-12-08T05:06:41.682Z,-0.25
2023-12-08T05:11:43.305Z,-0.17
2023-12-08T05:16:44.886Z,-0.11
2023-12-08T05:21:46.475Z,0.00
2023-12-08T05:26:48.708Z,-0.14
2023-12-08T05:31:50.312Z,-0.37
2023-12-08T05:36:51.901Z,-0.38
2023-12-08T05:41:53.507Z,-0.23
2023-12-08T05:46:56.617Z,-0.22
2023-12-08T05:51:59.347Z,-0.28
2023-12-08T05:57:01.023Z,-0.27
2023-12-08T06:02:22.545Z,-0.31
2023-12-08T06:07:24.412Z,-0.34
2023-12-08T06:12:26.255Z,-0.26
2023-12-08T06:17:28.431Z,-0.13
2023-12-08T06:22:30.125Z,-0.18
2023-12-08T06:27:31.738Z,-0.08
2023-12-08T06:32:33.296Z,-0.13
2023-12-08T06:37:34.879Z,-0.11
2023-12-08T06:42:36.469Z,-0.05
2023-12-08T06:47:38.180Z,0.05
2023-12-08T06:52:39.900Z,0.09
2023-12-08T06:57:41.524Z,0.18
2023-12-08T07:02:43.922Z,0.27
2023-12-08T07:07:45.837Z,0.54
2023-12-08T07:12:47.875Z,0.49
2023-12-08T07:17:49.566Z,0.54
2023-12-08T07:22:51.215Z,0.50
2023-12-08T07:27:52.856Z,0.62
2023-12-08T07:32:54.642Z,0.68
2023-12-08T07:37:56.534Z,0.83
2023-12-08T07:42:58.176Z,0.87
2023-12-08T07:47:59.854Z,0.93
2023-12-08T07:53:01.617Z,0.86
2023-12-08T07:58:03.403Z,0.89
2023-12-08T08:03:06.368Z,0.99
2023-12-08T08:08:08.288Z,1.01
2023-12-08T08:13:10.805Z,1.13
2023-12-08T08:18:12.420Z,1.09
2023-12-08T08:23:14.042Z,1.19
2023-12-08T08:28:15.788Z,1.17
2023-12-08T08:33:17.413Z,1.25
2023-12-08T08:38:19.127Z,1.45
2023-12-08T08:43:21.179Z,1.64
2023-12-08T08:48:22.908Z,1.70
2023-12-08T08:53:24.546Z,1.78
2023-12-08T08:58:26.803Z,1.82
2023-12-08T09:03:28.596Z,1.72
2023-12-08T09:08:30.252Z,1.64
2023-12-08T09:13:32.834Z,1.71
2023-12-08T09:18:34.829Z,1.86
2023-12-08T09:23:36.622Z,1.83
2023-12-08T09:28:38.303Z,1.95
2023-12-08T09:33:43.113Z,2.04
2023-12-08T09:38:44.995Z,2.27
2023-12-08T09:43:50.651Z,2.44
2023-12-08T09:48:52.531Z,2.29
2023-12-08T09:53:54.229Z,2.55
2023-12-08T09:58:55.848Z,2.65
2023-12-08T10:03:57.440Z,2.74
2023-12-08T10:08:59.052Z,2.98
2023-12-08T10:14:01.598Z,3.15
2023-12-08T10:19:07.157Z,3.22
2023-12-08T10:24:09.616Z,3.25
2023-12-08T10:29:11.845Z,3.20
2023-12-08T10:34:14.905Z,3.37
2023-12-08T10:39:18.424Z,3.40
2023-12-08T10:44:24.819Z,3.47
2023-12-08T10:49:27.917Z,3.60
2023-12-08T10:54:29.526Z,3.61
2023-12-08T10:59:31.136Z,3.59
2023-12-08T11:04:33.100Z,3.60
2023-12-08T11:09:36.505Z,3.56
2023-12-08T11:14:39.542Z,3.66
2023-12-08T11:19:41.794Z,3.68
2023-12-08T11:24:43.466Z,3.89
2023-12-08T11:29:51.322Z,4.24
2023-12-08T11:34:57.940Z,4.51
2023-12-08T11:40:12.416Z,4.49
2023-12-08T11:45:14.286Z,4.62
2023-12-08T11:50:16.211Z,4.80
2023-12-08T11:55:27.906Z,4.81
2023-12-08T12:00:35.172Z,4.87
2023-12-08T12:05:37.383Z,5.02
2023-12-08T12:10:39.432Z,5.20
2023-12-08T12:15:42.220Z,5.25
2023-12-08T12:20:43.881Z,5.32
2023-12-08T12:25:48.307Z,5.41
2023-12-08T12:30:49.973Z,5.19
2023-12-08T12:35:54.463Z,5.11
2023-12-08T12:41:24.633Z,5.02
2023-12-08T12:46:29.420Z,5.06
2023-12-08T12:51:38.121Z,5.03
2023-12-08T12:56:50.333Z,4.91
2023-12-08T13:01:51.960Z,4.77
2023-12-08T13:06:53.653Z,4.92
2023-12-08T13:11:55.250Z,4.87
2023-12-08T13:16:58.593Z,4.82
2023-12-08T13:22:00.238Z,4.76
2023-12-08T13:27:01.854Z,4.58
2023-12-08T13:32:05.879Z,4.53
2023-12-08T13:37:07.497Z,4.48
2023-12-08T13:42:09.231Z,4.45
2023-12-08T13:47:10.906Z,4.41
2023-12-08T13:52:12.510Z,4.47
2023-12-08T13:57:14.183Z,4.55
2023-12-08T14:02:15.863Z,4.56
2023-12-08T14:07:17.530Z,4.50
2023-12-08T14:12:19.191Z,4.51
2023-12-08T14:17:20.815Z,4.46
2023-12-08T14:22:22.473Z,4.45
2023-12-08T14:27:24.272Z,4.34
2023-12-08T14:32:25.998Z,4.37
2023-12-08T14:37:27.917Z,4.36
2023-12-08T14:42:30.499Z,4.27
2023-12-08T14:47:32.210Z,4.29
2023-12-08T14:52:33.828Z,4.29
2023-12-08T14:57:35.403Z,4.29
2023-12-08T15:02:37.505Z,4.21
2023-12-08T15:07:39.221Z,4.26
2023-12-08T15:12:40.825Z,4.25
2023-12-08T15:17:42.584Z,4.30
2023-12-08T15:22:44.319Z,4.28
2023-12-08T15:27:45.912Z,4.25
2023-12-08T15:32:48.111Z,4.28
2023-12-08T15:37:50.331Z,4.25
2023-12-08T15:42:51.916Z,4.20
2023-12-08T15:47:53.679Z,4.22
2023-12-08T15:52:55.329Z,4.18
2023-12-08T15:57:57.165Z,4.19
2023-12-08T16:02:58.783Z,4.18
2023-12-08T16:08:00.513Z,4.17
2023-12-08T16:13:02.076Z,4.09
2023-12-08T16:18:03.881Z,4.11
2023-12-08T16:23:05.803Z,4.07
2023-12-08T16:28:07.394Z,4.12
2023-12-08T16:33:09.126Z,4.10
2023-12-08T16:38:10.717Z,4.13
2023-12-08T16:43:12.287Z,4.11
2023-12-08T16:48:14.026Z,4.12
2023-12-08T16:53:15.807Z,4.04
2023-12-08T16:58:17.392Z,4.02
2023-12-08T17:03:20.113Z,3.98
2023-12-08T17:08:21.817Z,4.04
2023-12-08T17:13:23.429Z,4.06
2023-12-08T17:18:25.238Z,4.10
2023-12-08T17:23:27.404Z,4.12
2023-12-08T17:28:28.977Z,4.20
2023-12-08T17:33:30.779Z,4.18
2023-12-08T17:38:33.222Z,4.23
2023-12-08T17:43:35.140Z,4.36
2023-12-08T17:48:36.949Z,4.40
2023-12-08T17:53:38.641Z,4.42
2023-12-08T17:58:42.901Z,4.35
2023-12-08T18:03:44.634Z,4.42
2023-12-08T18:08:46.347Z,4.33
2023-12-08T18:13:47.972Z,4.37
2023-12-08T18:18:49.796Z,4.38
2023-12-08T18:23:51.487Z,4.39
2023-12-08T18:33:58.748Z,4.46
2023-12-08T18:39:00.735Z,4.38
2023-12-08T18:44:02.330Z,4.33
2023-12-08T18:49:05.134Z,4.30
2023-12-08T18:54:07.362Z,4.48
2023-12-08T18:59:09.019Z,4.50
2023-12-08T19:04:10.594Z,4.49
2023-12-08T19:09:12.255Z,4.53
2023-12-08T19:14:13.854Z,4.50
2023-12-08T19:19:15.543Z,4.48
2023-12-08T19:24:17.236Z,4.55
2023-12-08T19:29:18.842Z,4.53
2023-12-08T19:34:20.584Z,4.56
2023-12-08T19:39:22.226Z,4.58
2023-12-08T19:44:23.825Z,4.66
2023-12-08T19:49:25.975Z,4.57
2023-12-08T19:54:29.331Z,4.59
2023-12-08T19:59:31.042Z,4.56
2023-12-08T20:04:32.714Z,4.60
2023-12-08T20:09:34.604Z,4.54
2023-12-08T20:14:37.827Z,4.50
2023-12-08T20:19:39.859Z,4.49
2023-12-08T20:24:41.470Z,4.57
2023-12-08T20:29:43.041Z,4.64
2023-12-08T20:34:44.908Z,4.55
2023-12-08T20:39:46.733Z,4.55
2023-12-08T20:44:48.351Z,4.57
2023-12-08T20:49:50.165Z,4.63
2023-12-08T20:54:51.795Z,4.61
2023-12-08T20:59:53.551Z,4.56
2023-12-08T21:04:55.108Z,4.53
2023-12-08T21:09:56.662Z,4.55
2023-12-08T21:14:58.847Z,4.56
2023-12-08T21:20:00.611Z,4.47
2023-12-08T21:25:02.441Z,4.49
2023-12-08T21:30:04.718Z,4.53
2023-12-08T21:35:06.844Z,4.53
2023-12-08T21:40:09.368Z,4.51
2023-12-08T21:45:11.852Z,4.51
2023-12-08T21:50:14.014Z,4.52
2023-12-08T21:55:15.594Z,4.46
2023-12-08T22:00:17.765Z,4.40
2023-12-08T22:05:19.649Z,4.46
2023-12-08T22:10:21.231Z,4.42
2023-12-08T22:15:22.949Z,4.40
2023-12-08T22:20:24.934Z,4.46
2023-12-08T22:25:26.619Z,4.40
2023-12-08T22:30:28.311Z,4.42
2023-12-08T22:35:29.908Z,4.43
2023-12-08T22:40:31.527Z,4.41
2023-12-08T22:45:33.221Z,4.34
2023-12-08T22:50:43.259Z,4.40
2023-12-08T22:55:50.369Z,4.34
2023-12-08T23:00:51.938Z,4.40
2023-12-08T23:05:53.578Z,4.38
2023-12-08T23:10:55.171Z,4.42
2023-12-08T23:15:56.985Z,4.36
2023-12-08T23:20:58.854Z,4.36
2023-12-08T23:26:02.941Z,4.34
2023-12-08T23:31:05.927Z,4.30
2023-12-08T23:36:09.137Z,4.43
2023-12-08T23:41:10.786Z,4.49
2023-12-08T23:46:12.354Z,4.47
2023-12-08T23:51:14.055Z,4.48
2023-12-08T23:56:15.668Z,4.42
